Time;durP1;ratioP1;P1;durP2;ratioP2;P2;SDS_P1;SDS_P2;PMS_P1;PMS_P2;Temp;Humidity;BMP_temperature;BMP_pressure;BME280_temperature;BME280_humidity;BME280_pressure;Samples;Min_cycle;Max_cycle;Signal;HPM_P1;HPM_P2
2023/02/22 00:00:47;;;;;;;375.33;55.95;;;;;;;5.31;100.00;100886.34;4996315;28;20073;-78
2023/02/22 00:03:16;;;;;;;521.53;64.22;;;;;;;5.34;100.00;100886.09;4997561;28;20050;-78
2023/02/22 00:05:45;;;;;;;374.23;56.10;;;;;;;5.40;100.00;100879.63;4997294;28;20138;-80
2023/02/22 00:08:13;;;;;;;487.55;61.65;;;;;;;5.36;100.00;100879.03;4998103;28;20137;-80
2023/02/22 00:10:41;;;;;;;411.23;60.90;;;;;;;5.39;100.00;100873.59;4997770;28;20110;-80
2023/02/22 00:13:10;;;;;;;410.83;55.83;;;;;;;5.32;100.00;100867.22;4995929;28;20050;-82
2023/02/22 00:15:40;;;;;;;366.52;54.30;;;;;;;5.35;100.00;100874.78;4990025;28;20086;-78
2023/02/22 00:18:09;;;;;;;306.02;55.30;;;;;;;5.39;100.00;100872.78;4997430;28;20061;-79
2023/02/22 00:20:37;;;;;;;433.05;59.10;;;;;;;5.36;100.00;100866.06;4998145;28;20042;-80
2023/02/22 00:23:06;;;;;;;423.83;56.58;;;;;;;5.37;100.00;100867.72;4998226;28;20057;-78
2023/02/22 00:25:33;;;;;;;407.35;57.78;;;;;;;5.39;100.00;100863.22;4996837;28;20046;-80
2023/02/22 00:28:03;;;;;;;316.90;53.92;;;;;;;5.40;100.00;100859.69;4996974;28;20070;-78
2023/02/22 00:30:32;;;;;;;301.23;52.10;;;;;;;5.42;100.00;100859.56;4996629;28;20035;-79
2023/02/22 00:32:59;;;;;;;409.98;56.35;;;;;;;5.39;100.00;100858.03;4997704;28;20050;-80
2023/02/22 00:35:28;;;;;;;383.60;54.00;;;;;;;5.30;100.00;100851.78;4995322;28;20133;-77
2023/02/22 00:37:58;;;;;;;334.75;52.75;;;;;;;5.32;100.00;100855.09;4995724;28;20106;-78
2023/02/22 00:40:27;;;;;;;312.88;51.88;;;;;;;5.25;100.00;100855.66;4996734;28;20132;-79
2023/02/22 00:42:54;;;;;;;293.42;51.45;;;;;;;5.23;100.00;100855.78;4997865;28;20042;-79
2023/02/22 00:45:25;;;;;;;346.15;53.10;;;;;;;5.15;100.00;100854.72;4993862;28;20081;-77
2023/02/22 00:47:53;;;;;;;402.67;55.05;;;;;;;5.16;100.00;100851.19;4996616;28;20141;-80
2023/02/22 00:50:21;;;;;;;322.95;51.85;;;;;;;5.20;100.00;100843.03;5000368;28;20046;-79
2023/02/22 00:52:48;;;;;;;434.75;55.92;;;;;;;5.26;100.00;100837.38;4996643;28;20130;-78
2023/02/22 00:55:18;;;;;;;382.38;53.90;;;;;;;5.21;100.00;100849.06;4996968;28;20126;-79
2023/02/22 00:57:45;;;;;;;379.70;54.50;;;;;;;5.22;100.00;100846.34;4996794;28;20061;-79
2023/02/22 01:00:17;;;;;;;427.45;57.50;;;;;;;5.30;100.00;100844.00;4996183;28;20069;-79
2023/02/22 01:02:49;;;;;;;325.80;50.33;;;;;;;5.29;100.00;100841.50;4990696;28;20056;-78
2023/02/22 01:05:17;;;;;;;406.37;57.47;;;;;;;5.27;100.00;100833.03;5001548;28;20050;-79
2023/02/22 01:07:44;;;;;;;385.85;55.25;;;;;;;5.23;100.00;100831.59;4998634;28;20494;-79
2023/02/22 01:10:13;;;;;;;391.08;55.15;;;;;;;5.24;100.00;100843.63;5000751;28;20070;-78
2023/02/22 01:12:40;;;;;;;421.33;58.20;;;;;;;5.24;100.00;100834.09;4995567;28;20047;-80
2023/02/22 01:15:10;;;;;;;425.52;58.92;;;;;;;5.28;100.00;100832.91;4999922;28;20047;-80
2023/02/22 01:17:37;;;;;;;420.15;58.78;;;;;;;5.31;100.00;100834.44;4992063;28;20160;-79
2023/02/22 01:20:11;;;;;;;396.35;56.58;;;;;;;5.29;100.00;100831.97;5002737;28;20081;-80
2023/02/22 01:22:38;;;;;;;413.33;57.55;;;;;;;5.25;100.00;100814.16;4994977;28;20046;-80
2023/02/22 01:25:09;;;;;;;357.58;53.47;;;;;;;5.26;100.00;100821.00;5001622;28;20065;-81
2023/02/22 01:27:37;;;;;;;386.27;56.03;;;;;;;5.19;100.00;100815.47;5001949;28;20050;-77
2023/02/22 01:30:07;;;;;;;381.55;54.45;;;;;;;5.14;100.00;100812.41;5000914;28;20066;-79
2023/02/22 01:32:35;;;;;;;370.67;54.58;;;;;;;5.14;100.00;100811.56;5000020;28;20121;-79
2023/02/22 01:35:03;;;;;;;382.38;53.33;;;;;;;5.17;100.00;100814.75;4998582;28;20065;-77
2023/02/22 01:37:32;;;;;;;345.33;52.58;;;;;;;5.15;100.00;100813.22;5000455;28;20070;-79
2023/02/22 01:39:58;;;;;;;381.83;53.88;;;;;;;5.16;100.00;100807.09;5001489;28;20146;-79
2023/02/22 01:42:25;;;;;;;350.65;52.30;;;;;;;5.14;100.00;100808.97;4999923;28;20078;-80
2023/02/22 01:45:26;;;;;;;390.70;55.13;;;;;;;5.11;100.00;100802.25;5002183;28;20110;-81
2023/02/22 01:47:52;;;;;;;420.75;53.95;;;;;;;5.05;100.00;100796.69;4997843;28;20038;-78
2023/02/22 01:50:19;;;;;;;320.77;49.35;;;;;;;5.11;100.00;100791.06;5002550;28;20050;-80
2023/02/22 01:52:48;;;;;;;337.50;49.85;;;;;;;5.05;100.00;100794.94;5004325;28;20046;-79
2023/02/22 01:55:16;;;;;;;325.73;49.30;;;;;;;4.98;100.00;100786.78;5006241;28;20046;-79
2023/02/22 01:57:43;;;;;;;384.75;51.88;;;;;;;4.93;100.00;100783.72;5004238;28;20078;-78
2023/02/22 02:00:15;;;;;;;273.55;47.20;;;;;;;4.94;100.00;100777.59;5003236;28;20097;-78
2023/02/22 02:02:46;;;;;;;301.08;47.60;;;;;;;4.95;100.00;100781.84;5004290;28;20053;-79
2023/02/22 02:05:13;;;;;;;334.02;50.47;;;;;;;4.95;100.00;100786.19;5002456;28;20118;-79
2023/02/22 02:07:52;;;;;;;338.38;51.58;;;;;;;4.95;100.00;100773.22;4996904;28;20141;-78
2023/02/22 02:10:23;;;;;;;400.92;52.67;;;;;;;4.95;100.00;100781.00;4979692;28;20437;-79
2023/02/22 02:12:51;;;;;;;363.02;51.42;;;;;;;4.90;100.00;100776.16;4990087;28;20563;-77
2023/02/22 02:15:24;;;;;;;366.92;51.42;;;;;;;4.85;100.00;100770.50;4993665;28;20125;-78
2023/02/22 02:17:51;;;;;;;;;;;;;;;4.87;100.00;100775.56;4998160;28;20061;-79
2023/02/22 02:20:24;;;;;;;363.98;51.35;;;;;;;4.89;100.00;100763.31;4997709;28;19985;-79
2023/02/22 02:22:59;;;;;;;386.60;54.65;;;;;;;4.85;100.00;100769.69;4997855;28;20069;-79
2023/02/22 02:25:57;;;;;;;409.70;57.25;;;;;;;4.85;100.00;100765.31;4996486;28;20572;-79
2023/02/22 02:28:58;;;;;;;373.23;53.45;;;;;;;4.82;100.00;100772.50;4995693;28;20497;-78
2023/02/22 02:31:56;;;;;;;363.85;56.08;;;;;;;4.83;100.00;100767.19;4995848;28;20050;-79
2023/02/22 02:34:29;;;;;;;384.23;56.22;;;;;;;4.85;100.00;100759.31;4996292;28;20085;-79
2023/02/22 02:36:58;;;;;;;;;;;;;;;4.83;100.00;100761.19;4996169;28;20130;-77
2023/02/22 02:39:29;;;;;;;392.48;55.53;;;;;;;4.82;100.00;100755.19;4996376;28;20020;-79
2023/02/22 02:41:59;;;;;;;393.77;57.00;;;;;;;4.82;100.00;100752.59;4979862;28;20046;-77
2023/02/22 02:44:31;;;;;;;440.90;58.17;;;;;;;4.81;100.00;100758.72;4997688;28;20484;-79
2023/02/22 02:47:01;;;;;;;392.35;56.42;;;;;;;4.81;100.00;100758.72;4995152;28;20054;-76
2023/02/22 02:49:34;;;;;;;354.90;55.65;;;;;;;4.81;100.00;100763.06;4995514;28;20133;-78
2023/02/22 02:52:02;;;;;;;445.27;57.38;;;;;;;4.84;100.00;100766.25;4999596;28;20133;-78
2023/02/22 02:54:34;;;;;;;474.67;64.32;;;;;;;4.89;100.00;100764.16;4998202;28;20137;-78
2023/02/22 02:57:02;;;;;;;351.75;52.83;;;;;;;4.89;100.00;100758.97;4997806;28;20050;-78
2023/02/22 02:59:32;;;;;;;384.95;56.08;;;;;;;4.92;100.00;100761.31;4998403;28;20057;-79
2023/02/22 03:02:16;;;;;;;522.75;65.55;;;;;;;4.96;100.00;100754.13;4997063;28;20133;-79
2023/02/22 03:04:58;;;;;;;420.77;58.72;;;;;;;5.02;100.00;100758.84;4987279;28;20061;-76
2023/02/22 03:07:38;;;;;;;552.33;67.72;;;;;;;5.06;100.00;100756.84;4993746;28;20054;-79
2023/02/22 03:10:36;;;;;;;472.35;60.30;;;;;;;5.00;100.00;100751.19;4995781;28;21937;-79
2023/02/22 03:13:13;;;;;;;448.38;59.28;;;;;;;5.03;100.00;100757.09;4992286;28;20424;-79
2023/02/22 03:15:50;;;;;;;463.00;61.17;;;;;;;5.04;100.00;100750.97;4995601;28;20113;-78
2023/02/22 03:18:27;;;;;;;261.85;52.45;;;;;;;5.13;100.00;100758.03;4996094;28;20388;-78
2023/02/22 03:21:00;;;;;;;444.80;58.35;;;;;;;5.10;100.00;100745.31;4996420;28;20479;-79
2023/02/22 03:23:35;;;;;;;425.15;62.70;;;;;;;5.08;100.00;100742.84;4994739;28;20172;-78
2023/02/22 03:26:07;;;;;;;455.60;60.20;;;;;;;5.11;100.00;100746.97;4994552;28;20110;-78
2023/02/22 03:28:36;;;;;;;422.05;60.03;;;;;;;5.08;100.00;100747.19;4993553;28;20133;-78
2023/02/22 03:31:09;;;;;;;335.70;56.15;;;;;;;5.11;100.00;100744.38;4993601;28;20129;-79
2023/02/22 03:33:41;;;;;;;368.80;57.58;;;;;;;5.11;100.00;100744.38;4994112;28;20516;-78
2023/02/22 03:36:14;;;;;;;450.08;60.70;;;;;;;5.04;100.00;100744.00;4995437;28;20133;-79
2023/02/22 03:38:42;;;;;;;378.58;55.78;;;;;;;4.97;100.00;100737.63;4994969;28;20086;-77
2023/02/22 03:41:11;;;;;;;413.63;62.53;;;;;;;5.04;100.00;100743.19;4993468;28;20492;-77
2023/02/22 03:43:43;;;;;;;408.35;57.53;;;;;;;5.09;100.00;100751.44;4985960;28;20078;-77
2023/02/22 03:46:13;;;;;;;399.60;58.72;;;;;;;5.15;100.00;100748.38;4992883;28;20093;-78
2023/02/22 03:48:47;;;;;;;276.48;54.55;;;;;;;5.19;100.00;100752.38;4994044;28;20496;-78
2023/02/22 03:51:15;;;;;;;234.35;52.13;;;;;;;5.23;100.00;100738.22;4994191;28;20078;-77
2023/02/22 03:53:44;;;;;;;438.83;60.00;;;;;;;5.26;100.00;100748.34;4995676;28;20080;-76
2023/02/22 03:56:16;;;;;;;265.75;54.38;;;;;;;5.27;100.00;100745.63;4994319;28;20046;-75
2023/02/22 03:58:44;;;;;;;379.83;61.50;;;;;;;5.34;100.00;100752.00;4987315;28;20050;-78
2023/02/22 04:01:12;;;;;;;192.85;51.30;;;;;;;5.36;100.00;100751.88;4994690;28;20293;-77
2023/02/22 04:03:39;;;;;;;214.73;55.10;;;;;;;5.35;100.00;100742.44;4994472;28;20082;-78
2023/02/22 04:06:07;;;;;;;175.80;51.28;;;;;;;5.34;100.00;100746.00;4994704;28;20573;-76
2023/02/22 04:08:34;;;;;;;213.60;51.72;;;;;;;5.30;100.00;100740.22;4994934;28;20050;-77
2023/02/22 04:11:01;;;;;;;277.95;52.78;;;;;;;5.23;100.00;100744.22;5000098;28;20049;-80
2023/02/22 04:13:28;;;;;;;172.40;48.00;;;;;;;5.24;100.00;100745.03;5000881;28;20505;-79
2023/02/22 04:15:54;;;;;;;206.00;49.13;;;;;;;5.25;100.00;100751.88;5001155;28;20046;-79
2023/02/22 04:18:22;;;;;;;209.40;47.60;;;;;;;5.23;100.00;100749.41;4999134;28;20050;-78
2023/02/22 04:20:49;;;;;;;139.73;44.80;;;;;;;5.24;100.00;100747.63;4994377;28;20559;-77
2023/02/22 04:23:18;;;;;;;212.70;46.50;;;;;;;5.15;100.00;100748.38;4995162;28;20054;-79
2023/02/22 04:25:44;;;;;;;195.68;46.80;;;;;;;5.17;100.00;100743.91;4998047;28;20053;-77
2023/02/22 04:28:11;;;;;;;297.92;51.63;;;;;;;5.20;100.00;100748.84;4994763;28;20057;-78
2023/02/22 04:30:38;;;;;;;189.75;46.45;;;;;;;5.15;100.00;100743.19;4995972;28;20050;-80
2023/02/22 04:33:05;;;;;;;194.10;46.60;;;;;;;5.18;100.00;100735.16;4991206;28;20085;-79
2023/02/22 04:35:31;;;;;;;221.88;46.78;;;;;;;5.12;100.00;100730.44;4994133;28;20588;-78
2023/02/22 04:37:58;;;;;;;208.63;47.03;;;;;;;5.05;100.00;100727.50;4994012;28;20082;-78
2023/02/22 04:40:26;;;;;;;220.18;45.40;;;;;;;4.97;100.00;100732.44;4998099;28;20283;-78
2023/02/22 04:42:52;;;;;;;239.93;45.60;;;;;;;4.98;100.00;100716.78;4998237;28;20529;-78
2023/02/22 04:45:19;;;;;;;251.90;46.33;;;;;;;4.99;100.00;100717.59;4997688;28;20234;-77
2023/02/22 04:47:46;;;;;;;185.27;43.55;;;;;;;4.94;100.00;100727.50;4997483;28;20057;-76
2023/02/22 04:50:13;;;;;;;359.98;51.65;;;;;;;4.93;100.00;100721.47;4997383;28;20129;-78
2023/02/22 04:52:40;;;;;;;268.23;46.28;;;;;;;4.94;100.00;100723.13;4997287;28;20129;-78
2023/02/22 04:55:07;;;;;;;317.35;48.83;;;;;;;4.82;100.00;100710.28;4994908;28;20118;-77
2023/02/22 04:57:36;;;;;;;163.40;42.83;;;;;;;4.91;100.00;100718.19;4997806;28;20139;-79
2023/02/22 05:00:04;;;;;;;199.73;44.10;;;;;;;4.96;100.00;100729.03;4998660;28;20137;-79
2023/02/22 05:02:31;;;;;;;442.20;55.00;;;;;;;4.96;100.00;100723.84;4999195;28;20058;-78
2023/02/22 05:04:57;;;;;;;191.13;41.97;;;;;;;5.04;100.00;100717.25;4998925;28;20050;-77
2023/02/22 05:07:24;;;;;;;235.50;47.00;;;;;;;5.03;100.00;100721.59;4998732;28;20084;-79
2023/02/22 05:09:51;;;;;;;251.40;47.85;;;;;;;4.99;100.00;100715.84;4998566;28;20454;-79
2023/02/22 05:12:17;;;;;;;260.17;47.65;;;;;;;4.98;100.00;100716.78;5010536;28;20043;-79
2023/02/22 05:14:45;;;;;;;299.45;48.15;;;;;;;4.97;100.00;100709.13;5004476;28;20114;-79
2023/02/22 05:17:12;;;;;;;319.67;49.55;;;;;;;4.82;100.00;100700.72;5001300;28;20062;-79
2023/02/22 05:19:39;;;;;;;270.20;48.78;;;;;;;4.80;100.00;100704.38;5009174;28;20070;-78
2023/02/22 05:22:06;;;;;;;300.33;48.40;;;;;;;4.79;100.00;100695.78;5007746;28;20666;-79
2023/02/22 05:24:33;;;;;;;340.65;51.53;;;;;;;4.76;100.00;100690.81;4999238;28;20104;-79
2023/02/22 05:27:00;;;;;;;309.13;50.15;;;;;;;4.73;100.00;100683.28;4998301;28;20133;-79
2023/02/22 05:29:27;;;;;;;284.92;47.47;;;;;;;4.67;100.00;100683.78;4997785;28;20050;-79
2023/02/22 05:31:55;;;;;;;214.93;46.25;;;;;;;4.68;100.00;100684.59;4998283;28;20076;-78
2023/02/22 05:34:21;;;;;;;265.75;45.65;;;;;;;4.60;100.00;100685.19;4998249;28;20046;-79
2023/02/22 05:36:48;;;;;;;244.95;45.33;;;;;;;4.56;100.00;100687.19;4998630;28;20121;-79
2023/02/22 05:39:14;;;;;;;246.02;44.25;;;;;;;4.56;100.00;100688.94;4997958;28;20138;-78
2023/02/22 05:41:41;;;;;;;188.63;42.90;;;;;;;4.49;100.00;100685.16;4998654;28;20047;-79
2023/02/22 05:44:08;;;;;;;212.20;43.80;;;;;;;4.37;100.00;100675.72;4999085;28;20058;-79
2023/02/22 05:46:34;;;;;;;195.38;41.50;;;;;;;4.33;100.00;100678.53;4999026;28;20082;-79
2023/02/22 05:49:02;;;;;;;197.48;44.15;;;;;;;4.31;100.00;100666.63;4998631;28;20078;-79
2023/02/22 05:51:29;;;;;;;155.63;44.20;;;;;;;4.40;100.00;100667.72;4996897;28;20133;-79
2023/02/22 05:53:55;;;;;;;204.32;46.15;;;;;;;4.41;100.00;100675.38;4998597;28;20073;-79
2023/02/22 05:56:24;;;;;;;223.27;46.95;;;;;;;4.40;100.00;100673.72;4997088;28;20134;-80
2023/02/22 05:58:51;;;;;;;192.82;47.75;;;;;;;4.34;100.00;100671.59;4998130;28;20062;-78
2023/02/22 06:01:18;;;;;;;196.98;47.72;;;;;;;4.37;100.00;100667.94;4998870;28;20122;-79
2023/02/22 06:03:47;;;;;;;173.23;47.60;;;;;;;4.35;100.00;100662.88;4998614;28;20097;-79
2023/02/22 06:06:16;;;;;;;165.05;46.95;;;;;;;4.31;100.00;100670.03;4998700;28;20050;-80
2023/02/22 06:08:43;;;;;;;202.98;49.80;;;;;;;4.27;100.00;100660.03;4997949;28;20082;-79
2023/02/22 06:11:10;;;;;;;225.50;52.25;;;;;;;4.23;100.00;100658.63;4999336;28;20058;-78
2023/02/22 06:13:37;;;;;;;236.68;50.42;;;;;;;4.21;100.00;100661.34;4999059;28;20114;-80
2023/02/22 06:16:04;;;;;;;235.35;51.45;;;;;;;4.23;100.00;100659.47;5000015;28;20062;-80
2023/02/22 06:18:31;;;;;;;246.27;51.58;;;;;;;4.23;100.00;100659.47;5000030;28;20096;-79
2023/02/22 06:20:58;;;;;;;240.90;53.47;;;;;;;4.19;100.00;100655.44;5000896;28;20366;-80
2023/02/22 06:23:26;;;;;;;314.67;56.95;;;;;;;4.14;100.00;100648.97;4997820;28;20364;-79
2023/02/22 06:25:53;;;;;;;298.60;53.47;;;;;;;4.15;100.00;100658.38;5001596;28;20046;-79
2023/02/22 06:28:19;;;;;;;287.42;53.55;;;;;;;4.17;100.00;100649.56;5002882;28;20110;-79
2023/02/22 06:30:46;;;;;;;340.20;57.28;;;;;;;4.10;100.00;100647.53;5006304;28;20053;-80
2023/02/22 06:33:13;;;;;;;262.42;53.63;;;;;;;4.11;100.00;100644.81;5005104;28;20146;-80
2023/02/22 06:35:39;;;;;;;299.10;56.97;;;;;;;4.12;100.00;100645.66;5005997;28;20073;-81
2023/02/22 06:38:06;;;;;;;314.45;53.22;;;;;;;4.11;100.00;100650.00;5005995;28;20066;-79
2023/02/22 06:40:35;;;;;;;327.42;53.00;;;;;;;4.15;100.00;100650.59;5003721;28;20178;-80
2023/02/22 06:43:02;;;;;;;261.08;52.28;;;;;;;4.20;100.00;100651.91;5002773;28;20050;-81
2023/02/22 06:45:32;;;;;;;253.13;52.55;;;;;;;4.24;100.00;100653.34;5001010;28;20073;-78
2023/02/22 06:48:15;;;;;;;196.38;50.35;;;;;;;4.30;100.00;100650.25;5001784;28;20074;-79
2023/02/22 06:51:12;;;;;;;240.33;51.17;;;;;;;4.32;100.00;100661.34;5000969;28;20065;-78
2023/02/22 06:54:22;;;;;;;163.65;49.63;;;;;;;4.34;100.00;100654.28;4903443;28;20051;-81
2023/02/22 06:56:50;;;;;;;226.88;49.63;;;;;;;4.45;100.00;100657.81;4992802;28;20489;-80
2023/02/22 06:59:17;;;;;;;203.63;47.55;;;;;;;4.36;100.00;100661.09;4997856;28;20137;-79
2023/02/22 07:01:44;;;;;;;172.52;45.80;;;;;;;4.42;100.00;100663.25;4993679;28;20121;-80
2023/02/22 07:04:11;;;;;;;224.25;51.42;;;;;;;4.23;100.00;100654.28;5001625;28;20046;-80
2023/02/22 07:06:38;;;;;;;185.15;49.65;;;;;;;4.30;100.00;100665.81;5003976;28;20057;-80
2023/02/22 07:09:04;;;;;;;170.25;48.15;;;;;;;4.25;100.00;100651.56;5005056;28;20125;-78
2023/02/22 07:11:33;;;;;;;183.90;49.92;;;;;;;4.25;100.00;100648.97;5000654;28;20082;-81
2023/02/22 07:14:01;;;;;;;164.68;49.25;;;;;;;4.25;100.00;100652.38;4983215;28;20049;-80
2023/02/22 07:16:28;;;;;;;188.70;51.20;;;;;;;4.22;100.00;100649.22;4997598;28;20054;-81
2023/02/22 07:18:55;;;;;;;178.75;50.22;;;;;;;4.21;100.00;100658.75;4993501;28;20057;-81
2023/02/22 07:21:21;;;;;;;166.52;50.03;;;;;;;4.25;100.00;100644.59;4997718;28;20090;-80
2023/02/22 07:24:33;;;;;;;149.30;50.67;;;;;;;4.23;100.00;100653.47;4997569;28;20078;-79
2023/02/22 07:27:01;;;;;;;173.60;50.45;;;;;;;4.19;100.00;100639.91;4987077;28;20046;-77
2023/02/22 07:29:30;;;;;;;162.55;49.78;;;;;;;4.35;100.00;100647.31;4997379;28;20089;-79
2023/02/22 07:31:57;;;;;;;151.10;50.50;;;;;;;4.33;100.00;100647.44;4996077;28;20046;-79
2023/02/22 07:34:24;;;;;;;143.30;50.58;;;;;;;4.38;100.00;100647.09;4994661;28;20050;-78
2023/02/22 07:36:50;;;;;;;146.65;50.03;;;;;;;4.44;100.00;100653.59;4993167;28;20050;-77
2023/02/22 07:39:17;;;;;;;142.35;50.25;;;;;;;4.54;100.00;100652.78;4993437;28;20508;-77
2023/02/22 07:41:43;;;;;;;137.77;51.10;;;;;;;4.68;100.00;100649.13;4995099;28;20125;-78
2023/02/22 07:44:11;;;;;;;131.57;51.33;;;;;;;4.89;100.00;100642.28;4997982;28;20078;-79
2023/02/22 07:46:39;;;;;;;130.75;51.92;;;;;;;5.15;100.00;100632.47;4998460;28;20074;-80
2023/02/22 07:49:06;;;;;;;128.30;48.83;;;;;;;5.33;100.00;100635.34;4997722;28;20077;-79
2023/02/22 07:51:33;;;;;;;110.65;48.15;;;;;;;5.51;100.00;100628.72;4995857;28;20140;-79
2023/02/22 07:53:59;;;;;;;95.13;43.53;;;;;;;5.37;100.00;100623.78;4998231;28;20137;-78
2023/02/22 07:56:26;;;;;;;94.57;41.75;;;;;;;5.35;100.00;100623.09;4989544;28;20059;-79
2023/02/22 07:58:52;;;;;;;86.43;41.33;;;;;;;5.43;100.00;100615.53;4996765;28;20066;-80
2023/02/22 08:01:19;;;;;;;69.03;35.83;;;;;;;5.46;100.00;100619.63;4994999;28;20382;-79
2023/02/22 08:03:47;;;;;;;72.32;36.35;;;;;;;5.63;100.00;100617.34;4995219;28;20089;-79
2023/02/22 08:06:14;;;;;;;72.80;35.65;;;;;;;5.88;100.00;100599.72;4994613;28;20179;-79
2023/02/22 08:08:41;;;;;;;55.65;31.15;;;;;;;5.76;100.00;100609.34;4994936;28;20050;-79
2023/02/22 08:11:08;;;;;;;55.85;31.08;;;;;;;5.85;100.00;100603.41;4997538;28;20517;-79
2023/02/22 08:13:38;;;;;;;58.00;29.40;;;;;;;5.92;100.00;100607.19;4996421;28;20637;-80
2023/02/22 08:16:05;;;;;;;49.05;28.50;;;;;;;6.00;100.00;100598.75;4994483;28;20054;-78
2023/02/22 08:18:31;;;;;;;47.90;26.88;;;;;;;6.05;100.00;100601.81;4994459;28;20436;-79
2023/02/22 08:20:59;;;;;;;44.13;26.45;;;;;;;6.16;100.00;100590.50;4997710;28;20150;-79
2023/02/22 08:23:26;;;;;;;44.13;25.90;;;;;;;6.24;100.00;100601.06;4996971;28;20129;-75
2023/02/22 08:25:53;;;;;;;37.83;24.17;;;;;;;6.49;100.00;100595.47;4993818;28;20081;-78
2023/02/22 08:28:22;;;;;;;38.45;23.92;;;;;;;6.55;100.00;100588.91;4995560;28;20106;-79
2023/02/22 08:30:49;;;;;;;35.55;22.15;;;;;;;6.67;100.00;100593.03;5000182;28;20054;-79
2023/02/22 08:33:18;;;;;;;35.90;23.15;;;;;;;6.87;100.00;100589.56;4995972;28;20424;-79
2023/02/22 08:35:47;;;;;;;37.78;23.20;;;;;;;6.87;100.00;100586.13;4999830;28;20113;-79
2023/02/22 08:38:19;;;;;;;32.53;21.58;;;;;;;7.17;100.00;100586.03;5000145;28;20052;-79
2023/02/22 08:40:48;;;;;;;32.47;20.90;;;;;;;6.93;100.00;100585.59;4998652;28;20117;-79
2023/02/22 08:43:15;;;;;;;34.50;21.98;;;;;;;6.98;100.00;100578.22;4997316;28;20520;-79
2023/02/22 08:45:44;;;;;;;31.98;21.00;;;;;;;7.16;100.00;100575.75;4997167;28;20085;-80
2023/02/22 08:48:10;;;;;;;31.33;21.23;;;;;;;7.14;100.00;100580.28;4995646;28;20090;-78
2023/02/22 08:50:37;;;;;;;32.13;21.70;;;;;;;7.14;100.00;100569.88;4994909;28;20082;-78
2023/02/22 08:53:05;;;;;;;36.03;22.80;;;;;;;7.21;100.00;100569.19;4994618;28;20475;-78
2023/02/22 08:55:35;;;;;;;33.47;21.48;;;;;;;7.28;100.00;100561.69;4987712;28;20065;-79
2023/02/22 08:58:03;;;;;;;35.35;22.15;;;;;;;7.29;100.00;100563.31;4994457;28;20086;-78
2023/02/22 09:00:31;;;;;;;34.67;20.45;;;;;;;7.30;100.00;100567.56;4994618;28;20133;-78
2023/02/22 09:02:59;;;;;;;32.83;21.38;;;;;;;7.33;100.00;100564.69;4995048;28;20052;-78
2023/02/22 09:05:26;;;;;;;29.98;20.95;;;;;;;7.76;100.00;100569.47;4999321;28;20077;-79
2023/02/22 09:07:52;;;;;;;32.90;20.08;;;;;;;7.64;100.00;100568.78;5000088;28;20465;-79
2023/02/22 09:10:23;;;;;;;30.67;21.50;;;;;;;7.66;100.00;100577.28;4997306;28;20133;-79
2023/02/22 09:12:51;;;;;;;36.10;24.17;;;;;;;7.78;100.00;100572.75;4993032;28;20047;-80
2023/02/22 09:15:19;;;;;;;31.45;20.33;;;;;;;8.07;100.00;100580.50;4997469;28;20072;-77
2023/02/22 09:17:48;;;;;;;31.75;21.42;;;;;;;8.24;100.00;100577.16;4996643;28;20114;-76
2023/02/22 09:20:17;;;;;;;32.85;19.90;;;;;;;8.48;100.00;100581.09;4994750;28;20060;-77
2023/02/22 09:22:45;;;;;;;32.92;19.83;;;;;;;8.52;100.00;100574.59;4999816;28;20085;-77
2023/02/22 09:25:12;;;;;;;29.60;19.27;;;;;;;8.34;100.00;100565.91;4994848;28;20129;-77
2023/02/22 09:27:39;;;;;;;29.75;19.05;;;;;;;8.24;100.00;100571.94;4996560;28;20166;-76
2023/02/22 09:30:10;;;;;;;29.58;18.52;;;;;;;7.98;100.00;100571.75;4996372;28;20057;-78
2023/02/22 09:32:37;;;;;;;29.15;19.75;;;;;;;8.28;100.00;100575.09;4995592;28;20436;-75
2023/02/22 09:35:04;;;;;;;27.98;19.45;;;;;;;8.09;100.00;100572.53;4997889;28;20077;-76
2023/02/22 09:37:34;;;;;;;26.90;18.65;;;;;;;8.59;100.00;100573.06;4994544;28;20057;-78
2023/02/22 09:40:00;;;;;;;26.83;17.75;;;;;;;8.82;100.00;100578.72;4994352;28;20042;-78
2023/02/22 09:42:32;;;;;;;27.02;17.55;;;;;;;8.71;100.00;100568.50;4995035;28;20058;-79
2023/02/22 09:45:11;;;;;;;28.83;18.25;;;;;;;8.80;100.00;100573.66;4992339;28;20050;-77
2023/02/22 09:47:45;;;;;;;28.55;19.42;;;;;;;8.62;100.00;100560.56;4992046;28;20054;-76
2023/02/22 09:50:15;;;;;;;27.77;17.30;;;;;;;8.56;99.12;100560.31;4994380;28;20432;-77
2023/02/22 09:52:54;;;;;;;28.35;18.60;;;;;;;8.93;98.51;100558.47;4994401;28;20378;-77
2023/02/22 09:55:29;;;;;;;24.13;17.60;;;;;;;8.68;98.21;100560.94;4985693;28;20046;-76
2023/02/22 09:58:00;;;;;;;25.25;18.23;;;;;;;8.71;97.87;100551.03;4994873;28;20058;-77
2023/02/22 10:00:32;;;;;;;28.58;17.95;;;;;;;8.83;97.30;100552.50;4994990;28;20057;-77
2023/02/22 10:03:18;;;;;;;31.80;18.40;;;;;;;8.96;97.41;100536.50;4992133;28;20038;-75
2023/02/22 10:05:52;;;;;;;30.25;17.85;;;;;;;8.85;97.28;100540.13;4993441;28;20129;-78
2023/02/22 10:08:20;;;;;;;27.30;18.45;;;;;;;8.86;97.67;100540.94;4992225;28;20050;-77
2023/02/22 10:10:54;;;;;;;26.05;17.25;;;;;;;9.14;97.16;100536.47;4995400;28;20109;-77
2023/02/22 10:13:28;;;;;;;25.98;17.75;;;;;;;9.21;96.15;100530.53;4992404;28;20078;-79
2023/02/22 10:16:00;;;;;;;28.75;18.17;;;;;;;9.53;95.46;100539.59;4994781;28;20081;-78
2023/02/22 10:19:07;;;;;;;25.13;17.10;;;;;;;9.36;95.39;100522.97;4995361;28;20046;-78
2023/02/22 10:21:56;;;;;;;30.52;17.83;;;;;;;9.38;94.59;100517.59;4988434;28;20304;-76
2023/02/22 10:24:37;;;;;;;25.83;18.20;;;;;;;9.59;93.92;100511.06;4991964;28;20061;-76
2023/02/22 10:27:06;;;;;;;26.88;18.58;;;;;;;9.48;93.39;100508.69;4994180;28;20050;-78
2023/02/22 10:29:39;;;;;;;27.00;19.02;;;;;;;9.84;93.52;100511.25;4993254;28;20118;-77
2023/02/22 10:32:11;;;;;;;30.15;18.15;;;;;;;9.85;93.22;100510.28;4999654;28;20043;-79
2023/02/22 10:34:43;;;;;;;29.13;17.70;;;;;;;10.07;92.69;100504.50;5003705;28;20054;-77
2023/02/22 10:37:21;;;;;;;27.48;18.38;;;;;;;10.05;91.74;100503.81;5000238;28;20129;-78
2023/02/22 10:39:51;;;;;;;28.52;18.17;;;;;;;10.25;91.67;100504.47;4999656;28;20043;-74
2023/02/22 10:42:22;;;;;;;27.35;18.38;;;;;;;10.22;91.61;100500.34;4998335;28;20054;-76
2023/02/22 10:44:49;;;;;;;27.88;19.05;;;;;;;10.26;91.06;100500.88;5001504;28;20133;-78
2023/02/22 10:47:18;;;;;;;30.15;18.63;;;;;;;10.48;90.71;100509.94;5003018;28;20092;-79
2023/02/22 10:49:50;;;;;;;27.00;17.90;;;;;;;10.45;90.44;100495.38;5010213;28;20072;-78
2023/02/22 10:52:26;;;;;;;26.42;18.30;;;;;;;10.56;90.06;100489.84;5006734;28;20054;-78
2023/02/22 10:54:55;;;;;;;23.52;16.52;;;;;;;10.72;89.35;100473.38;4997396;28;20050;-78
2023/02/22 10:57:25;;;;;;;23.95;17.02;;;;;;;10.78;88.92;100470.13;5001211;28;20420;-77
2023/02/22 10:59:52;;;;;;;26.75;17.25;;;;;;;10.95;88.00;100471.75;5004735;28;20054;-78
2023/02/22 11:02:21;;;;;;;25.85;17.60;;;;;;;10.91;87.78;100480.91;4995970;28;20551;-79
2023/02/22 11:04:50;;;;;;;27.88;17.92;;;;;;;11.00;87.47;100483.53;4997220;28;20134;-78
2023/02/22 11:07:23;;;;;;;23.80;17.58;;;;;;;11.02;86.81;100478.97;4998694;28;20089;-77
2023/02/22 11:09:52;;;;;;;23.58;16.67;;;;;;;11.08;86.54;100468.66;4998417;28;20042;-77
2023/02/22 11:12:25;;;;;;;22.65;16.17;;;;;;;11.18;86.26;100465.88;4997587;28;20054;-78
2023/02/22 11:14:52;;;;;;;25.38;16.67;;;;;;;11.29;86.15;100465.56;5002075;28;20073;-77
2023/02/22 11:17:31;;;;;;;28.88;17.35;;;;;;;11.58;85.77;100472.88;4991648;28;20097;-78